sensor_id;sensor_type;location;lat;lon;timestamp;P1;durP1;ratioP1;P2;durP2;ratioP2
44728;SDS011;30457;53.590;9.922;2023-03-19T00:00:41;10.18;;;5.68;;
44728;SDS011;30457;53.590;9.922;2023-03-19T00:05:07;6.72;;;4.75;;
44728;SDS011;30457;53.590;9.922;2023-03-19T00:09:32;5.88;;;5.28;;
44728;SDS011;30457;53.590;9.922;2023-03-19T00:13:58;6.95;;;4.45;;
44728;SDS011;30457;53.590;9.922;2023-03-19T00:18:24;6.10;;;4.25;;
44728;SDS011;30457;53.590;9.922;2023-03-19T00:22:49;5.75;;;4.40;;
44728;SDS011;30457;53.590;9.922;2023-03-19T00:27:15;5.38;;;4.18;;
44728;SDS011;30457;53.590;9.922;2023-03-19T00:31:41;7.03;;;4.18;;
44728;SDS011;30457;53.590;9.922;2023-03-19T00:36:07;5.10;;;3.65;;
44728;SDS011;30457;53.590;9.922;2023-03-19T00:40:33;5.70;;;3.92;;
44728;SDS011;30457;53.590;9.922;2023-03-19T00:44:59;5.47;;;4.20;;
44728;SDS011;30457;53.590;9.922;2023-03-19T00:49:25;5.40;;;4.55;;
44728;SDS011;30457;53.590;9.922;2023-03-19T00:53:51;11.88;;;6.05;;
44728;SDS011;30457;53.590;9.922;2023-03-19T00:58:17;7.00;;;4.47;;
44728;SDS011;30457;53.590;9.922;2023-03-19T01:02:42;4.80;;;3.47;;
44728;SDS011;30457;53.590;9.922;2023-03-19T01:07:08;7.70;;;4.05;;
44728;SDS011;30457;53.590;9.922;2023-03-19T01:11:34;4.18;;;3.42;;
44728;SDS011;30457;53.590;9.922;2023-03-19T01:16:00;4.10;;;2.92;;
44728;SDS011;30457;53.590;9.922;2023-03-19T01:20:26;6.20;;;3.13;;
44728;SDS011;30457;53.590;9.922;2023-03-19T01:24:51;4.35;;;3.00;;
44728;SDS011;30457;53.590;9.922;2023-03-19T01:29:17;3.67;;;3.05;;
44728;SDS011;30457;53.590;9.922;2023-03-19T01:33:43;3.70;;;2.55;;
44728;SDS011;30457;53.590;9.922;2023-03-19T01:38:15;4.22;;;2.40;;
44728;SDS011;30457;53.590;9.922;2023-03-19T01:47:43;3.45;;;2.30;;
44728;SDS011;30457;53.590;9.922;2023-03-19T01:52:09;3.20;;;2.13;;
44728;SDS011;30457;53.590;9.922;2023-03-19T01:56:57;4.50;;;2.65;;
44728;SDS011;30457;53.590;9.922;2023-03-19T02:06:39;2.17;;;1.92;;
44728;SDS011;30457;53.590;9.922;2023-03-19T02:11:10;2.67;;;2.10;;
44728;SDS011;30457;53.590;9.922;2023-03-19T02:15:36;2.30;;;2.10;;
44728;SDS011;30457;53.590;9.922;2023-03-19T02:24:34;2.58;;;1.90;;
44728;SDS011;30457;53.590;9.922;2023-03-19T02:29:12;2.78;;;2.17;;
44728;SDS011;30457;53.590;9.922;2023-03-19T02:33:38;3.20;;;2.08;;
44728;SDS011;30457;53.590;9.922;2023-03-19T02:38:04;2.72;;;2.30;;
44728;SDS011;30457;53.590;9.922;2023-03-19T02:42:30;3.38;;;2.28;;
44728;SDS011;30457;53.590;9.922;2023-03-19T02:46:56;3.55;;;2.58;;
44728;SDS011;30457;53.590;9.922;2023-03-19T02:51:22;3.30;;;2.30;;
44728;SDS011;30457;53.590;9.922;2023-03-19T02:55:47;2.42;;;2.13;;
44728;SDS011;30457;53.590;9.922;2023-03-19T03:00:13;3.00;;;2.30;;
44728;SDS011;30457;53.590;9.922;2023-03-19T03:04:41;3.80;;;2.72;;
44728;SDS011;30457;53.590;9.922;2023-03-19T03:09:07;1.95;;;1.67;;
44728;SDS011;30457;53.590;9.922;2023-03-19T03:13:33;4.13;;;2.40;;
44728;SDS011;30457;53.590;9.922;2023-03-19T03:18:00;2.72;;;2.05;;
44728;SDS011;30457;53.590;9.922;2023-03-19T03:22:25;3.70;;;2.33;;
44728;SDS011;30457;53.590;9.922;2023-03-19T03:26:51;3.72;;;2.42;;
44728;SDS011;30457;53.590;9.922;2023-03-19T03:31:18;5.43;;;2.55;;
44728;SDS011;30457;53.590;9.922;2023-03-19T03:35:45;4.00;;;2.47;;
44728;SDS011;30457;53.590;9.922;2023-03-19T03:40:11;2.38;;;2.00;;
44728;SDS011;30457;53.590;9.922;2023-03-19T03:44:38;2.90;;;2.08;;
44728;SDS011;30457;53.590;9.922;2023-03-19T03:49:04;3.58;;;3.08;;
44728;SDS011;30457;53.590;9.922;2023-03-19T03:53:29;5.03;;;2.47;;
44728;SDS011;30457;53.590;9.922;2023-03-19T03:57:55;2.97;;;2.67;;
44728;SDS011;30457;53.590;9.922;2023-03-19T04:02:21;2.60;;;2.05;;
44728;SDS011;30457;53.590;9.922;2023-03-19T04:06:46;3.13;;;2.60;;
44728;SDS011;30457;53.590;9.922;2023-03-19T04:11:21;4.38;;;2.70;;
44728;SDS011;30457;53.590;9.922;2023-03-19T04:15:47;4.13;;;2.50;;
44728;SDS011;30457;53.590;9.922;2023-03-19T04:20:13;4.40;;;2.63;;
44728;SDS011;30457;53.590;9.922;2023-03-19T04:24:42;3.75;;;2.45;;
44728;SDS011;30457;53.590;9.922;2023-03-19T04:29:07;4.22;;;2.72;;
44728;SDS011;30457;53.590;9.922;2023-03-19T04:33:34;4.57;;;2.40;;
44728;SDS011;30457;53.590;9.922;2023-03-19T04:38:00;2.67;;;2.22;;
44728;SDS011;30457;53.590;9.922;2023-03-19T04:42:25;2.53;;;2.00;;
44728;SDS011;30457;53.590;9.922;2023-03-19T04:47:17;3.33;;;2.30;;
44728;SDS011;30457;53.590;9.922;2023-03-19T04:51:49;6.28;;;2.50;;
44728;SDS011;30457;53.590;9.922;2023-03-19T04:56:14;3.17;;;2.22;;
44728;SDS011;30457;53.590;9.922;2023-03-19T05:00:41;2.78;;;2.33;;
44728;SDS011;30457;53.590;9.922;2023-03-19T05:05:09;3.17;;;2.25;;
44728;SDS011;30457;53.590;9.922;2023-03-19T05:09:37;2.80;;;2.13;;
44728;SDS011;30457;53.590;9.922;2023-03-19T05:14:04;3.17;;;2.53;;
44728;SDS011;30457;53.590;9.922;2023-03-19T05:18:45;5.72;;;2.55;;
44728;SDS011;30457;53.590;9.922;2023-03-19T05:23:12;3.70;;;2.53;;
44728;SDS011;30457;53.590;9.922;2023-03-19T05:27:45;2.72;;;2.53;;
44728;SDS011;30457;53.590;9.922;2023-03-19T05:36:48;3.03;;;2.42;;
44728;SDS011;30457;53.590;9.922;2023-03-19T05:41:16;3.00;;;2.28;;
44728;SDS011;30457;53.590;9.922;2023-03-19T05:45:52;2.40;;;2.15;;
44728;SDS011;30457;53.590;9.922;2023-03-19T05:50:23;3.00;;;2.47;;
44728;SDS011;30457;53.590;9.922;2023-03-19T05:55:06;2.92;;;2.67;;
44728;SDS011;30457;53.590;9.922;2023-03-19T05:59:44;5.43;;;3.58;;
44728;SDS011;30457;53.590;9.922;2023-03-19T06:04:23;4.45;;;3.55;;
44728;SDS011;30457;53.590;9.922;2023-03-19T06:08:50;4.78;;;3.42;;
44728;SDS011;30457;53.590;9.922;2023-03-19T06:13:38;4.32;;;3.60;;
44728;SDS011;30457;53.590;9.922;2023-03-19T06:18:06;3.65;;;3.30;;
44728;SDS011;30457;53.590;9.922;2023-03-19T06:22:33;3.95;;;3.63;;
44728;SDS011;30457;53.590;9.922;2023-03-19T06:26:58;9.88;;;4.55;;
44728;SDS011;30457;53.590;9.922;2023-03-19T06:31:24;4.10;;;3.70;;
44728;SDS011;30457;53.590;9.922;2023-03-19T06:35:51;4.65;;;3.63;;
44728;SDS011;30457;53.590;9.922;2023-03-19T06:40:17;3.65;;;3.08;;
44728;SDS011;30457;53.590;9.922;2023-03-19T06:44:44;3.70;;;3.40;;
44728;SDS011;30457;53.590;9.922;2023-03-19T06:49:09;5.10;;;3.67;;
44728;SDS011;30457;53.590;9.922;2023-03-19T06:53:35;5.03;;;3.30;;
44728;SDS011;30457;53.590;9.922;2023-03-19T06:58:00;3.88;;;3.58;;
44728;SDS011;30457;53.590;9.922;2023-03-19T07:02:26;6.90;;;3.58;;
44728;SDS011;30457;53.590;9.922;2023-03-19T07:06:52;3.70;;;3.30;;
44728;SDS011;30457;53.590;9.922;2023-03-19T07:11:17;5.10;;;3.70;;
44728;SDS011;30457;53.590;9.922;2023-03-19T07:15:43;5.72;;;3.38;;
44728;SDS011;30457;53.590;9.922;2023-03-19T07:20:08;3.38;;;3.05;;
44728;SDS011;30457;53.590;9.922;2023-03-19T07:24:35;3.75;;;3.22;;
44728;SDS011;30457;53.590;9.922;2023-03-19T07:29:00;7.63;;;3.72;;
44728;SDS011;30457;53.590;9.922;2023-03-19T07:33:26;4.80;;;3.83;;
44728;SDS011;30457;53.590;9.922;2023-03-19T07:37:53;5.47;;;3.72;;
44728;SDS011;30457;53.590;9.922;2023-03-19T07:42:18;4.82;;;3.60;;
44728;SDS011;30457;53.590;9.922;2023-03-19T07:46:44;6.00;;;3.22;;
44728;SDS011;30457;53.590;9.922;2023-03-19T07:51:10;6.82;;;3.25;;
44728;SDS011;30457;53.590;9.922;2023-03-19T07:55:36;4.07;;;3.53;;
44728;SDS011;30457;53.590;9.922;2023-03-19T08:00:02;4.40;;;3.28;;
44728;SDS011;30457;53.590;9.922;2023-03-19T08:04:38;4.20;;;3.50;;
44728;SDS011;30457;53.590;9.922;2023-03-19T08:09:04;8.60;;;3.83;;
44728;SDS011;30457;53.590;9.922;2023-03-19T08:13:30;6.45;;;3.88;;
44728;SDS011;30457;53.590;9.922;2023-03-19T08:17:56;4.75;;;3.55;;
44728;SDS011;30457;53.590;9.922;2023-03-19T08:22:23;5.65;;;3.30;;
44728;SDS011;30457;53.590;9.922;2023-03-19T08:26:49;4.50;;;3.33;;
44728;SDS011;30457;53.590;9.922;2023-03-19T08:31:14;4.00;;;3.35;;
44728;SDS011;30457;53.590;9.922;2023-03-19T08:35:40;4.20;;;3.28;;
44728;SDS011;30457;53.590;9.922;2023-03-19T08:40:06;4.30;;;3.67;;
44728;SDS011;30457;53.590;9.922;2023-03-19T08:44:32;3.92;;;3.20;;
44728;SDS011;30457;53.590;9.922;2023-03-19T08:48:58;4.43;;;3.58;;
44728;SDS011;30457;53.590;9.922;2023-03-19T08:53:24;9.27;;;3.65;;
44728;SDS011;30457;53.590;9.922;2023-03-19T08:57:50;4.70;;;3.30;;
44728;SDS011;30457;53.590;9.922;2023-03-19T09:02:16;4.78;;;3.13;;
44728;SDS011;30457;53.590;9.922;2023-03-19T09:06:41;4.32;;;2.85;;
44728;SDS011;30457;53.590;9.922;2023-03-19T09:11:07;4.93;;;2.70;;
44728;SDS011;30457;53.590;9.922;2023-03-19T09:15:34;4.40;;;2.30;;
44728;SDS011;30457;53.590;9.922;2023-03-19T09:20:00;2.70;;;1.83;;
44728;SDS011;30457;53.590;9.922;2023-03-19T09:24:26;3.70;;;1.65;;
44728;SDS011;30457;53.590;9.922;2023-03-19T09:28:51;4.32;;;1.60;;
44728;SDS011;30457;53.590;9.922;2023-03-19T09:33:17;4.00;;;1.35;;
44728;SDS011;30457;53.590;9.922;2023-03-19T09:37:44;3.25;;;1.73;;
44728;SDS011;30457;53.590;9.922;2023-03-19T09:42:14;1.70;;;1.50;;
44728;SDS011;30457;53.590;9.922;2023-03-19T09:51:46;2.42;;;1.67;;
44728;SDS011;30457;53.590;9.922;2023-03-19T09:56:15;4.13;;;1.80;;
44728;SDS011;30457;53.590;9.922;2023-03-19T10:00:45;3.13;;;2.00;;
44728;SDS011;30457;53.590;9.922;2023-03-19T10:09:53;2.03;;;1.83;;
44728;SDS011;30457;53.590;9.922;2023-03-19T10:19:02;2.70;;;1.88;;
44728;SDS011;30457;53.590;9.922;2023-03-19T10:28:17;2.33;;;1.65;;
44728;SDS011;30457;53.590;9.922;2023-03-19T10:32:48;2.05;;;1.85;;
44728;SDS011;30457;53.590;9.922;2023-03-19T10:37:22;2.05;;;1.85;;
44728;SDS011;30457;53.590;9.922;2023-03-19T10:46:21;3.67;;;2.47;;
44728;SDS011;30457;53.590;9.922;2023-03-19T10:50:48;2.30;;;2.10;;
44728;SDS011;30457;53.590;9.922;2023-03-19T10:55:22;5.32;;;1.80;;
44728;SDS011;30457;53.590;9.922;2023-03-19T10:59:49;1.98;;;1.75;;
44728;SDS011;30457;53.590;9.922;2023-03-19T11:04:19;2.80;;;2.00;;
44728;SDS011;30457;53.590;9.922;2023-03-19T11:13:33;3.67;;;2.50;;
44728;SDS011;30457;53.590;9.922;2023-03-19T11:18:04;3.28;;;2.65;;
44728;SDS011;30457;53.590;9.922;2023-03-19T11:22:32;3.15;;;2.47;;
44728;SDS011;30457;53.590;9.922;2023-03-19T11:27:00;3.72;;;3.20;;
44728;SDS011;30457;53.590;9.922;2023-03-19T11:31:33;3.05;;;2.58;;
44728;SDS011;30457;53.590;9.922;2023-03-19T11:41:15;3.67;;;3.00;;
44728;SDS011;30457;53.590;9.922;2023-03-19T11:50:59;3.33;;;2.72;;
44728;SDS011;30457;53.590;9.922;2023-03-19T11:55:57;5.15;;;3.13;;
44728;SDS011;30457;53.590;9.922;2023-03-19T12:00:29;3.10;;;2.78;;
44728;SDS011;30457;53.590;9.922;2023-03-19T12:05:23;5.28;;;3.10;;
44728;SDS011;30457;53.590;9.922;2023-03-19T12:09:59;4.10;;;3.20;;
44728;SDS011;30457;53.590;9.922;2023-03-19T12:19:23;6.68;;;2.88;;
44728;SDS011;30457;53.590;9.922;2023-03-19T12:24:01;5.00;;;2.70;;
44728;SDS011;30457;53.590;9.922;2023-03-19T12:28:30;3.75;;;2.80;;
44728;SDS011;30457;53.590;9.922;2023-03-19T12:38:19;3.47;;;2.28;;
44728;SDS011;30457;53.590;9.922;2023-03-19T12:42:58;4.38;;;2.03;;
44728;SDS011;30457;53.590;9.922;2023-03-19T12:47:34;3.33;;;1.90;;
44728;SDS011;30457;53.590;9.922;2023-03-19T12:52:47;3.60;;;1.58;;
44728;SDS011;30457;53.590;9.922;2023-03-19T12:57:10;2.63;;;1.50;;
44728;SDS011;30457;53.590;9.922;2023-03-19T13:01:48;4.55;;;2.20;;
44728;SDS011;30457;53.590;9.922;2023-03-19T13:06:19;4.10;;;2.10;;
44728;SDS011;30457;53.590;9.922;2023-03-19T13:11:02;3.15;;;1.70;;
44728;SDS011;30457;53.590;9.922;2023-03-19T13:15:36;3.45;;;1.85;;
44728;SDS011;30457;53.590;9.922;2023-03-19T13:20:12;3.13;;;1.98;;
44728;SDS011;30457;53.590;9.922;2023-03-19T13:24:43;1.80;;;1.70;;
44728;SDS011;30457;53.590;9.922;2023-03-19T13:29:18;5.45;;;1.85;;
44728;SDS011;30457;53.590;9.922;2023-03-19T13:34:05;4.60;;;1.88;;
44728;SDS011;30457;53.590;9.922;2023-03-19T13:38:49;4.97;;;1.90;;
44728;SDS011;30457;53.590;9.922;2023-03-19T13:43:19;1.63;;;1.52;;
44728;SDS011;30457;53.590;9.922;2023-03-19T13:47:51;3.60;;;1.85;;
44728;SDS011;30457;53.590;9.922;2023-03-19T14:05:52;4.30;;;2.80;;
44728;SDS011;30457;53.590;9.922;2023-03-19T14:14:54;3.30;;;2.75;;
44728;SDS011;30457;53.590;9.922;2023-03-19T14:19:41;4.07;;;2.08;;
44728;SDS011;30457;53.590;9.922;2023-03-19T14:29:03;5.55;;;2.85;;
44728;SDS011;30457;53.590;9.922;2023-03-19T14:38:51;3.10;;;2.45;;
44728;SDS011;30457;53.590;9.922;2023-03-19T14:43:14;3.25;;;2.70;;
44728;SDS011;30457;53.590;9.922;2023-03-19T14:48:04;3.42;;;3.13;;
44728;SDS011;30457;53.590;9.922;2023-03-19T14:57:46;5.70;;;4.15;;
44728;SDS011;30457;53.590;9.922;2023-03-19T15:02:33;5.25;;;3.88;;
44728;SDS011;30457;53.590;9.922;2023-03-19T15:06:57;5.85;;;3.35;;
44728;SDS011;30457;53.590;9.922;2023-03-19T15:16:27;5.65;;;4.22;;
44728;SDS011;30457;53.590;9.922;2023-03-19T15:21:01;5.18;;;4.22;;
44728;SDS011;30457;53.590;9.922;2023-03-19T15:25:29;6.63;;;5.47;;
44728;SDS011;30457;53.590;9.922;2023-03-19T15:29:55;8.95;;;5.93;;
44728;SDS011;30457;53.590;9.922;2023-03-19T15:34:25;8.02;;;6.05;;
44728;SDS011;30457;53.590;9.922;2023-03-19T15:39:02;12.18;;;5.95;;
44728;SDS011;30457;53.590;9.922;2023-03-19T15:43:31;13.48;;;6.75;;
44728;SDS011;30457;53.590;9.922;2023-03-19T15:48:01;9.57;;;5.63;;
44728;SDS011;30457;53.590;9.922;2023-03-19T15:52:39;8.10;;;5.82;;
44728;SDS011;30457;53.590;9.922;2023-03-19T15:57:07;8.23;;;6.10;;
44728;SDS011;30457;53.590;9.922;2023-03-19T16:01:35;9.43;;;7.18;;
44728;SDS011;30457;53.590;9.922;2023-03-19T16:06:04;9.27;;;6.38;;
44728;SDS011;30457;53.590;9.922;2023-03-19T16:10:38;9.60;;;6.07;;
44728;SDS011;30457;53.590;9.922;2023-03-19T16:20:12;8.65;;;6.72;;
44728;SDS011;30457;53.590;9.922;2023-03-19T16:24:41;8.68;;;6.47;;
44728;SDS011;30457;53.590;9.922;2023-03-19T16:33:44;10.43;;;6.50;;
44728;SDS011;30457;53.590;9.922;2023-03-19T16:38:11;7.00;;;6.22;;
44728;SDS011;30457;53.590;9.922;2023-03-19T16:47:12;7.05;;;6.35;;
44728;SDS011;30457;53.590;9.922;2023-03-19T16:51:39;7.45;;;6.30;;
44728;SDS011;30457;53.590;9.922;2023-03-19T16:56:05;7.38;;;6.38;;
44728;SDS011;30457;53.590;9.922;2023-03-19T17:00:31;7.32;;;5.93;;
44728;SDS011;30457;53.590;9.922;2023-03-19T17:04:57;9.82;;;7.53;;
44728;SDS011;30457;53.590;9.922;2023-03-19T17:09:23;8.45;;;6.72;;
44728;SDS011;30457;53.590;9.922;2023-03-19T17:13:50;8.98;;;6.30;;
44728;SDS011;30457;53.590;9.922;2023-03-19T17:18:18;8.65;;;6.40;;
44728;SDS011;30457;53.590;9.922;2023-03-19T17:22:46;9.88;;;5.75;;
44728;SDS011;30457;53.590;9.922;2023-03-19T17:27:12;7.82;;;6.22;;
44728;SDS011;30457;53.590;9.922;2023-03-19T17:31:39;6.82;;;5.47;;
44728;SDS011;30457;53.590;9.922;2023-03-19T17:36:07;8.00;;;6.43;;
44728;SDS011;30457;53.590;9.922;2023-03-19T17:40:35;6.68;;;5.75;;
44728;SDS011;30457;53.590;9.922;2023-03-19T17:45:01;8.35;;;6.07;;
44728;SDS011;30457;53.590;9.922;2023-03-19T17:49:28;9.32;;;5.70;;
44728;SDS011;30457;53.590;9.922;2023-03-19T17:53:57;5.55;;;4.90;;
44728;SDS011;30457;53.590;9.922;2023-03-19T17:58:23;7.00;;;6.03;;
44728;SDS011;30457;53.590;9.922;2023-03-19T18:02:50;9.13;;;6.57;;
44728;SDS011;30457;53.590;9.922;2023-03-19T18:07:17;7.95;;;5.53;;
44728;SDS011;30457;53.590;9.922;2023-03-19T18:11:43;7.32;;;5.60;;
44728;SDS011;30457;53.590;9.922;2023-03-19T18:16:15;8.10;;;5.30;;
44728;SDS011;30457;53.590;9.922;2023-03-19T18:20:42;5.65;;;5.15;;
44728;SDS011;30457;53.590;9.922;2023-03-19T18:25:16;6.03;;;5.20;;
44728;SDS011;30457;53.590;9.922;2023-03-19T18:29:46;7.65;;;5.75;;
44728;SDS011;30457;53.590;9.922;2023-03-19T18:34:13;6.63;;;5.63;;
44728;SDS011;30457;53.590;9.922;2023-03-19T18:38:40;8.25;;;6.15;;
44728;SDS011;30457;53.590;9.922;2023-03-19T18:43:07;6.97;;;5.90;;
44728;SDS011;30457;53.590;9.922;2023-03-19T18:47:34;10.15;;;5.57;;
44728;SDS011;30457;53.590;9.922;2023-03-19T18:52:00;7.57;;;5.85;;
44728;SDS011;30457;53.590;9.922;2023-03-19T18:56:26;8.10;;;6.68;;
44728;SDS011;30457;53.590;9.922;2023-03-19T19:00:54;8.82;;;7.05;;
44728;SDS011;30457;53.590;9.922;2023-03-19T19:05:22;7.35;;;5.60;;
44728;SDS011;30457;53.590;9.922;2023-03-19T19:09:52;9.27;;;6.22;;
44728;SDS011;30457;53.590;9.922;2023-03-19T19:14:19;8.15;;;6.22;;
44728;SDS011;30457;53.590;9.922;2023-03-19T19:18:47;12.85;;;7.65;;
44728;SDS011;30457;53.590;9.922;2023-03-19T19:23:13;13.43;;;8.77;;
44728;SDS011;30457;53.590;9.922;2023-03-19T19:27:39;13.30;;;9.60;;
44728;SDS011;30457;53.590;9.922;2023-03-19T19:32:09;13.90;;;9.90;;
44728;SDS011;30457;53.590;9.922;2023-03-19T19:36:45;15.00;;;10.18;;
44728;SDS011;30457;53.590;9.922;2023-03-19T19:41:11;20.73;;;11.30;;
44728;SDS011;30457;53.590;9.922;2023-03-19T19:45:41;18.70;;;10.77;;
44728;SDS011;30457;53.590;9.922;2023-03-19T19:50:14;17.50;;;11.65;;
44728;SDS011;30457;53.590;9.922;2023-03-19T19:54:43;19.13;;;12.88;;
44728;SDS011;30457;53.590;9.922;2023-03-19T19:59:11;21.65;;;13.32;;
44728;SDS011;30457;53.590;9.922;2023-03-19T20:03:39;22.58;;;13.60;;
44728;SDS011;30457;53.590;9.922;2023-03-19T20:08:04;22.25;;;13.20;;
44728;SDS011;30457;53.590;9.922;2023-03-19T20:12:31;21.48;;;12.70;;
44728;SDS011;30457;53.590;9.922;2023-03-19T20:16:57;24.40;;;13.40;;
44728;SDS011;30457;53.590;9.922;2023-03-19T20:21:23;25.80;;;14.18;;
44728;SDS011;30457;53.590;9.922;2023-03-19T20:25:48;23.70;;;13.60;;
44728;SDS011;30457;53.590;9.922;2023-03-19T20:30:18;24.08;;;14.27;;
44728;SDS011;30457;53.590;9.922;2023-03-19T20:34:44;23.63;;;12.88;;
44728;SDS011;30457;53.590;9.922;2023-03-19T20:39:10;18.65;;;10.88;;
44728;SDS011;30457;53.590;9.922;2023-03-19T20:43:36;17.77;;;10.93;;
44728;SDS011;30457;53.590;9.922;2023-03-19T20:48:02;19.85;;;11.50;;
44728;SDS011;30457;53.590;9.922;2023-03-19T20:52:28;16.80;;;9.38;;
44728;SDS011;30457;53.590;9.922;2023-03-19T20:56:53;16.05;;;9.90;;
44728;SDS011;30457;53.590;9.922;2023-03-19T21:01:20;14.48;;;8.48;;
44728;SDS011;30457;53.590;9.922;2023-03-19T21:05:45;17.70;;;9.18;;
44728;SDS011;30457;53.590;9.922;2023-03-19T21:14:52;14.95;;;8.10;;
44728;SDS011;30457;53.590;9.922;2023-03-19T21:19:18;14.68;;;8.07;;
44728;SDS011;30457;53.590;9.922;2023-03-19T21:23:54;16.70;;;8.40;;
44728;SDS011;30457;53.590;9.922;2023-03-19T21:28:23;14.88;;;8.25;;
44728;SDS011;30457;53.590;9.922;2023-03-19T21:32:54;17.95;;;9.27;;
44728;SDS011;30457;53.590;9.922;2023-03-19T21:37:21;14.73;;;8.60;;
44728;SDS011;30457;53.590;9.922;2023-03-19T21:41:46;13.23;;;7.90;;
44728;SDS011;30457;53.590;9.922;2023-03-19T21:46:13;13.60;;;7.60;;
44728;SDS011;30457;53.590;9.922;2023-03-19T21:50:40;15.07;;;8.52;;
44728;SDS011;30457;53.590;9.922;2023-03-19T21:55:08;14.32;;;8.43;;
44728;SDS011;30457;53.590;9.922;2023-03-19T21:59:37;14.25;;;7.68;;
44728;SDS011;30457;53.590;9.922;2023-03-19T22:04:04;15.35;;;8.25;;
44728;SDS011;30457;53.590;9.922;2023-03-19T22:08:29;13.82;;;8.00;;
44728;SDS011;30457;53.590;9.922;2023-03-19T22:12:56;13.52;;;8.82;;
44728;SDS011;30457;53.590;9.922;2023-03-19T22:17:21;16.52;;;9.00;;
44728;SDS011;30457;53.590;9.922;2023-03-19T22:21:50;15.25;;;8.52;;
44728;SDS011;30457;53.590;9.922;2023-03-19T22:26:26;18.00;;;9.80;;
44728;SDS011;30457;53.590;9.922;2023-03-19T22:30:54;19.98;;;9.70;;
44728;SDS011;30457;53.590;9.922;2023-03-19T22:35:20;19.55;;;9.18;;
44728;SDS011;30457;53.590;9.922;2023-03-19T22:39:45;24.02;;;10.02;;
44728;SDS011;30457;53.590;9.922;2023-03-19T22:44:28;19.88;;;10.27;;
44728;SDS011;30457;53.590;9.922;2023-03-19T22:48:54;24.23;;;11.18;;
44728;SDS011;30457;53.590;9.922;2023-03-19T22:53:22;20.60;;;10.35;;
44728;SDS011;30457;53.590;9.922;2023-03-19T22:57:52;21.45;;;10.93;;
44728;SDS011;30457;53.590;9.922;2023-03-19T23:02:18;19.25;;;9.82;;
44728;SDS011;30457;53.590;9.922;2023-03-19T23:06:44;20.77;;;10.00;;
44728;SDS011;30457;53.590;9.922;2023-03-19T23:11:10;20.40;;;11.00;;
44728;SDS011;30457;53.590;9.922;2023-03-19T23:15:35;20.77;;;10.88;;
44728;SDS011;30457;53.590;9.922;2023-03-19T23:20:12;32.25;;;10.82;;
44728;SDS011;30457;53.590;9.922;2023-03-19T23:24:42;22.60;;;10.70;;
44728;SDS011;30457;53.590;9.922;2023-03-19T23:29:09;24.45;;;10.88;;
44728;SDS011;30457;53.590;9.922;2023-03-19T23:33:42;25.40;;;10.75;;
44728;SDS011;30457;53.590;9.922;2023-03-19T23:38:10;21.27;;;10.40;;
44728;SDS011;30457;53.590;9.922;2023-03-19T23:42:36;23.45;;;10.90;;
44728;SDS011;30457;53.590;9.922;2023-03-19T23:47:05;24.67;;;11.40;;
44728;SDS011;30457;53.590;9.922;2023-03-19T23:51:32;23.33;;;10.88;;
44728;SDS011;30457;53.590;9.922;2023-03-19T23:55:59;21.73;;;11.05;;
